sensor_id;sensor_type;location;lat;lon;timestamp;temperature;humidity
5286;DHT22;2665;53.112;7.358;2023-03-05T10:35:36;6.90;1.00
5286;DHT22;2665;53.112;7.358;2023-03-05T10:38:06;6.60;1.00
5286;DHT22;2665;53.112;7.358;2023-03-05T10:40:45;6.10;1.00
5286;DHT22;2665;53.112;7.358;2023-03-05T10:46:04;5.30;91.10
5286;DHT22;2665;53.112;7.358;2023-03-05T10:51:31;4.90;99.90
5286;DHT22;2665;53.112;7.358;2023-03-05T10:54:08;5.00;1.00
5286;DHT22;2665;53.112;7.358;2023-03-05T10:56:36;5.40;81.60
5286;DHT22;2665;53.112;7.358;2023-03-05T10:59:02;5.60;1.00
5286;DHT22;2665;53.112;7.358;2023-03-05T11:01:29;5.90;1.00
5286;DHT22;2665;53.112;7.358;2023-03-05T11:03:59;6.10;99.90
5286;DHT22;2665;53.112;7.358;2023-03-05T11:06:51;6.10;50.60
5286;DHT22;2665;53.112;7.358;2023-03-05T11:09:28;6.20;99.90
5286;DHT22;2665;53.112;7.358;2023-03-05T11:14:30;6.90;1.00
5286;DHT22;2665;53.112;7.358;2023-03-05T11:16:59;7.30;1.00
5286;DHT22;2665;53.112;7.358;2023-03-05T11:19:30;7.40;1.00
5286;DHT22;2665;53.112;7.358;2023-03-05T11:24:42;8.70;1.00
5286;DHT22;2665;53.112;7.358;2023-03-05T11:27:22;9.20;1.00
5286;DHT22;2665;53.112;7.358;2023-03-05T11:29:50;9.70;99.90
5286;DHT22;2665;53.112;7.358;2023-03-05T11:34:54;10.10;99.90
5286;DHT22;2665;53.112;7.358;2023-03-05T11:37:26;9.90;99.90
5286;DHT22;2665;53.112;7.358;2023-03-05T11:40:19;9.10;66.50
5286;DHT22;2665;53.112;7.358;2023-03-05T11:42:54;8.50;85.50
5286;DHT22;2665;53.112;7.358;2023-03-05T11:45:21;8.70;86.30
5286;DHT22;2665;53.112;7.358;2023-03-05T11:47:50;9.50;71.90
5286;DHT22;2665;53.112;7.358;2023-03-05T11:50:24;9.80;67.30
5286;DHT22;2665;53.112;7.358;2023-03-05T11:55:26;8.90;57.00
5286;DHT22;2665;53.112;7.358;2023-03-05T11:58:03;8.20;53.10
5286;DHT22;2665;53.112;7.358;2023-03-05T12:00:37;7.70;53.90
5286;DHT22;2665;53.112;7.358;2023-03-05T12:03:31;8.20;74.00
5286;DHT22;2665;53.112;7.358;2023-03-05T12:06:01;9.20;83.70
5286;DHT22;2665;53.112;7.358;2023-03-05T12:08:33;10.60;84.00
5286;DHT22;2665;53.112;7.358;2023-03-05T12:11:04;11.60;80.90
5286;DHT22;2665;53.112;7.358;2023-03-05T12:13:38;11.10;57.20
5286;DHT22;2665;53.112;7.358;2023-03-05T12:19:00;11.00;59.20
5286;DHT22;2665;53.112;7.358;2023-03-05T12:21:35;11.30;59.80
5286;DHT22;2665;53.112;7.358;2023-03-05T12:27:04;11.60;52.70
5286;DHT22;2665;53.112;7.358;2023-03-05T12:29:49;12.10;52.60
5286;DHT22;2665;53.112;7.358;2023-03-05T12:45:34;7.50;42.20
5286;DHT22;2665;53.112;7.358;2023-03-05T12:53:13;6.80;51.70
5286;DHT22;2665;53.112;7.358;2023-03-05T12:58:42;6.60;59.20
5286;DHT22;2665;53.112;7.358;2023-03-05T13:03:46;8.20;86.20
5286;DHT22;2665;53.112;7.358;2023-03-05T13:06:32;8.40;77.30
5286;DHT22;2665;53.112;7.358;2023-03-05T13:09:00;8.00;69.80
5286;DHT22;2665;53.112;7.358;2023-03-05T13:11:28;7.70;67.00
5286;DHT22;2665;53.112;7.358;2023-03-05T13:13:56;7.40;61.30
5286;DHT22;2665;53.112;7.358;2023-03-05T13:16:30;8.10;68.90
5286;DHT22;2665;53.112;7.358;2023-03-05T13:19:01;9.30;76.60
5286;DHT22;2665;53.112;7.358;2023-03-05T13:21:31;9.50;65.20
5286;DHT22;2665;53.112;7.358;2023-03-05T13:23:59;8.70;57.20
5286;DHT22;2665;53.112;7.358;2023-03-05T13:34:29;7.10;44.40
5286;DHT22;2665;53.112;7.358;2023-03-05T13:36:56;7.90;62.90
5286;DHT22;2665;53.112;7.358;2023-03-05T13:39:47;8.50;62.60
5286;DHT22;2665;53.112;7.358;2023-03-05T13:44:42;10.70;74.40
5286;DHT22;2665;53.112;7.358;2023-03-05T13:47:16;10.40;63.90
5286;DHT22;2665;53.112;7.358;2023-03-05T13:49:42;9.30;53.70
5286;DHT22;2665;53.112;7.358;2023-03-05T13:52:09;8.30;46.10
5286;DHT22;2665;53.112;7.358;2023-03-05T13:54:35;8.10;46.60
5286;DHT22;2665;53.112;7.358;2023-03-05T13:57:06;8.60;50.60
5286;DHT22;2665;53.112;7.358;2023-03-05T13:59:35;9.40;54.50
5286;DHT22;2665;53.112;7.358;2023-03-05T14:02:17;10.40;58.40
5286;DHT22;2665;53.112;7.358;2023-03-05T14:04:44;10.90;55.10
5286;DHT22;2665;53.112;7.358;2023-03-05T14:09:48;9.70;43.70
5286;DHT22;2665;53.112;7.358;2023-03-05T14:14:49;8.60;40.90
5286;DHT22;2665;53.112;7.358;2023-03-05T14:17:22;8.30;40.30
5286;DHT22;2665;53.112;7.358;2023-03-05T14:19:48;8.20;42.00
5286;DHT22;2665;53.112;7.358;2023-03-05T14:22:35;8.00;41.90
5286;DHT22;2665;53.112;7.358;2023-03-05T14:25:03;7.70;40.90
5286;DHT22;2665;53.112;7.358;2023-03-05T14:27:38;7.60;42.20
5286;DHT22;2665;53.112;7.358;2023-03-05T14:30:04;8.30;47.90
5286;DHT22;2665;53.112;7.358;2023-03-05T14:32:32;8.50;47.80
5286;DHT22;2665;53.112;7.358;2023-03-05T14:35:01;8.20;44.70
5286;DHT22;2665;53.112;7.358;2023-03-05T14:37:39;8.00;46.70
5286;DHT22;2665;53.112;7.358;2023-03-05T14:40:15;8.60;49.80
5286;DHT22;2665;53.112;7.358;2023-03-05T14:42:50;8.90;50.20
5286;DHT22;2665;53.112;7.358;2023-03-05T14:45:18;8.80;46.40
5286;DHT22;2665;53.112;7.358;2023-03-05T14:47:45;8.90;48.50
5286;DHT22;2665;53.112;7.358;2023-03-05T14:50:20;8.90;49.30
5286;DHT22;2665;53.112;7.358;2023-03-05T14:52:48;8.60;45.60
5286;DHT22;2665;53.112;7.358;2023-03-05T14:55:20;8.10;44.30
5286;DHT22;2665;53.112;7.358;2023-03-05T14:57:47;7.70;43.30
5286;DHT22;2665;53.112;7.358;2023-03-05T15:00:16;7.40;43.70
5286;DHT22;2665;53.112;7.358;2023-03-05T15:02:42;7.50;62.90
5286;DHT22;2665;53.112;7.358;2023-03-05T15:05:08;7.30;48.00
5286;DHT22;2665;53.112;7.358;2023-03-05T15:07:34;7.20;48.50
5286;DHT22;2665;53.112;7.358;2023-03-05T15:09:59;7.00;50.00
5286;DHT22;2665;53.112;7.358;2023-03-05T15:12:25;6.80;48.00
5286;DHT22;2665;53.112;7.358;2023-03-05T15:14:55;6.60;49.30
5286;DHT22;2665;53.112;7.358;2023-03-05T15:17:39;6.30;49.50
5286;DHT22;2665;53.112;7.358;2023-03-05T15:20:14;6.40;52.20
5286;DHT22;2665;53.112;7.358;2023-03-05T15:22:40;6.80;55.00
5286;DHT22;2665;53.112;7.358;2023-03-05T15:25:06;7.20;57.40
5286;DHT22;2665;53.112;7.358;2023-03-05T15:27:32;7.70;59.20
5286;DHT22;2665;53.112;7.358;2023-03-05T15:29:57;7.90;58.80
5286;DHT22;2665;53.112;7.358;2023-03-05T15:32:27;7.70;55.40
5286;DHT22;2665;53.112;7.358;2023-03-05T15:34:55;7.30;54.70
5286;DHT22;2665;53.112;7.358;2023-03-05T15:37:21;7.00;39.40
5286;DHT22;2665;53.112;7.358;2023-03-05T15:39:47;6.90;53.30
5286;DHT22;2665;53.112;7.358;2023-03-05T15:42:12;6.90;53.90
5286;DHT22;2665;53.112;7.358;2023-03-05T15:44:38;6.90;55.00
5286;DHT22;2665;53.112;7.358;2023-03-05T15:47:05;6.90;55.00
5286;DHT22;2665;53.112;7.358;2023-03-05T15:49:31;7.00;56.00
5286;DHT22;2665;53.112;7.358;2023-03-05T15:51:56;6.90;56.00
5286;DHT22;2665;53.112;7.358;2023-03-05T15:54:22;6.80;55.60
5286;DHT22;2665;53.112;7.358;2023-03-05T15:56:48;6.70;54.30
5286;DHT22;2665;53.112;7.358;2023-03-05T15:59:13;6.50;55.10
5286;DHT22;2665;53.112;7.358;2023-03-05T16:01:45;6.30;60.00
5286;DHT22;2665;53.112;7.358;2023-03-05T16:04:13;6.20;74.20
5286;DHT22;2665;53.112;7.358;2023-03-05T16:06:39;6.10;76.70
5286;DHT22;2665;53.112;7.358;2023-03-05T16:09:05;6.00;75.70
5286;DHT22;2665;53.112;7.358;2023-03-05T16:11:33;5.90;74.30
5286;DHT22;2665;53.112;7.358;2023-03-05T16:14:05;5.80;73.10
5286;DHT22;2665;53.112;7.358;2023-03-05T16:16:33;5.80;72.60
5286;DHT22;2665;53.112;7.358;2023-03-05T16:19:00;5.80;73.70
5286;DHT22;2665;53.112;7.358;2023-03-05T16:21:26;5.70;74.80
5286;DHT22;2665;53.112;7.358;2023-03-05T16:23:52;5.70;75.90
5286;DHT22;2665;53.112;7.358;2023-03-05T16:26:17;5.60;78.30
5286;DHT22;2665;53.112;7.358;2023-03-05T16:28:43;5.50;80.50
5286;DHT22;2665;53.112;7.358;2023-03-05T16:31:09;5.40;85.00
5286;DHT22;2665;53.112;7.358;2023-03-05T16:33:35;5.30;86.90
5286;DHT22;2665;53.112;7.358;2023-03-05T16:38:38;5.20;90.50
5286;DHT22;2665;53.112;7.358;2023-03-05T16:41:04;5.10;91.70
5286;DHT22;2665;53.112;7.358;2023-03-05T16:43:29;5.10;91.80
5286;DHT22;2665;53.112;7.358;2023-03-05T16:45:55;5.10;92.80
5286;DHT22;2665;53.112;7.358;2023-03-05T16:48:20;5.00;94.50
5286;DHT22;2665;53.112;7.358;2023-03-05T16:50:46;5.00;95.60
5286;DHT22;2665;53.112;7.358;2023-03-05T16:53:12;5.00;95.90
5286;DHT22;2665;53.112;7.358;2023-03-05T16:55:37;4.90;96.90
5286;DHT22;2665;53.112;7.358;2023-03-05T16:58:03;4.90;98.10
5286;DHT22;2665;53.112;7.358;2023-03-05T17:00:29;4.90;98.00
5286;DHT22;2665;53.112;7.358;2023-03-05T17:02:54;4.90;99.10
5286;DHT22;2665;53.112;7.358;2023-03-05T17:05:20;4.90;99.90
5286;DHT22;2665;53.112;7.358;2023-03-05T17:07:46;4.80;99.90
5286;DHT22;2665;53.112;7.358;2023-03-05T17:10:12;4.80;99.90
5286;DHT22;2665;53.112;7.358;2023-03-05T17:12:38;4.70;99.90
5286;DHT22;2665;53.112;7.358;2023-03-05T17:15:05;4.70;99.90
5286;DHT22;2665;53.112;7.358;2023-03-05T17:17:31;4.60;99.90
5286;DHT22;2665;53.112;7.358;2023-03-05T17:19:57;4.60;99.90
5286;DHT22;2665;53.112;7.358;2023-03-05T17:22:23;4.50;99.90
5286;DHT22;2665;53.112;7.358;2023-03-05T17:24:49;4.50;99.90
5286;DHT22;2665;53.112;7.358;2023-03-05T17:27:14;4.50;99.90
5286;DHT22;2665;53.112;7.358;2023-03-05T17:29:44;4.50;99.90
5286;DHT22;2665;53.112;7.358;2023-03-05T17:32:09;4.40;99.90
5286;DHT22;2665;53.112;7.358;2023-03-05T17:34:35;4.40;99.90
5286;DHT22;2665;53.112;7.358;2023-03-05T17:37:02;4.40;99.90
5286;DHT22;2665;53.112;7.358;2023-03-05T17:39:28;4.40;99.90
5286;DHT22;2665;53.112;7.358;2023-03-05T17:41:54;4.30;99.90
5286;DHT22;2665;53.112;7.358;2023-03-05T17:44:20;4.30;99.90
5286;DHT22;2665;53.112;7.358;2023-03-05T17:46:45;4.30;99.90
5286;DHT22;2665;53.112;7.358;2023-03-05T17:49:11;4.20;99.90
5286;DHT22;2665;53.112;7.358;2023-03-05T17:51:37;4.20;99.90
5286;DHT22;2665;53.112;7.358;2023-03-05T17:54:03;4.20;99.90
5286;DHT22;2665;53.112;7.358;2023-03-05T17:56:29;4.10;99.90
5286;DHT22;2665;53.112;7.358;2023-03-05T17:58:55;4.00;99.90
5286;DHT22;2665;53.112;7.358;2023-03-05T18:01:29;4.10;99.90
5286;DHT22;2665;53.112;7.358;2023-03-05T18:03:55;4.00;99.90
5286;DHT22;2665;53.112;7.358;2023-03-05T18:06:21;3.90;99.90
5286;DHT22;2665;53.112;7.358;2023-03-05T18:08:47;3.80;99.90
5286;DHT22;2665;53.112;7.358;2023-03-05T18:11:13;3.80;99.90
5286;DHT22;2665;53.112;7.358;2023-03-05T18:13:39;3.80;99.90
5286;DHT22;2665;53.112;7.358;2023-03-05T18:16:05;3.80;99.90
5286;DHT22;2665;53.112;7.358;2023-03-05T18:18:31;3.70;99.90
5286;DHT22;2665;53.112;7.358;2023-03-05T18:20:57;3.70;99.90
5286;DHT22;2665;53.112;7.358;2023-03-05T18:23:22;3.70;99.90
5286;DHT22;2665;53.112;7.358;2023-03-05T18:25:48;3.70;99.90
5286;DHT22;2665;53.112;7.358;2023-03-05T18:28:14;3.70;99.90
5286;DHT22;2665;53.112;7.358;2023-03-05T18:30:42;3.70;99.90
5286;DHT22;2665;53.112;7.358;2023-03-05T18:33:17;3.70;99.90
5286;DHT22;2665;53.112;7.358;2023-03-05T18:35:43;3.60;99.90
5286;DHT22;2665;53.112;7.358;2023-03-05T18:38:08;3.60;1.00
5286;DHT22;2665;53.112;7.358;2023-03-05T18:40:34;3.60;1.00
5286;DHT22;2665;53.112;7.358;2023-03-05T18:43:01;3.60;1.00
5286;DHT22;2665;53.112;7.358;2023-03-05T18:45:27;3.60;1.00
5286;DHT22;2665;53.112;7.358;2023-03-05T18:47:53;3.60;1.00
5286;DHT22;2665;53.112;7.358;2023-03-05T18:50:22;3.60;1.00
5286;DHT22;2665;53.112;7.358;2023-03-05T18:52:48;3.70;1.00
5286;DHT22;2665;53.112;7.358;2023-03-05T18:55:19;3.70;1.00
5286;DHT22;2665;53.112;7.358;2023-03-05T18:57:45;3.70;1.00
5286;DHT22;2665;53.112;7.358;2023-03-05T19:00:16;3.70;1.00
5286;DHT22;2665;53.112;7.358;2023-03-05T19:02:42;3.70;1.00
5286;DHT22;2665;53.112;7.358;2023-03-05T19:05:08;3.70;1.00
5286;DHT22;2665;53.112;7.358;2023-03-05T19:07:34;3.70;1.00
5286;DHT22;2665;53.112;7.358;2023-03-05T19:10:01;3.70;1.00
5286;DHT22;2665;53.112;7.358;2023-03-05T19:12:32;3.70;1.00
5286;DHT22;2665;53.112;7.358;2023-03-05T19:15:03;3.70;1.00
5286;DHT22;2665;53.112;7.358;2023-03-05T19:17:30;3.70;1.00
5286;DHT22;2665;53.112;7.358;2023-03-05T19:19:56;3.80;1.00
5286;DHT22;2665;53.112;7.358;2023-03-05T19:22:28;3.80;1.00
5286;DHT22;2665;53.112;7.358;2023-03-05T19:24:56;3.80;1.00
5286;DHT22;2665;53.112;7.358;2023-03-05T19:27:21;3.70;1.00
5286;DHT22;2665;53.112;7.358;2023-03-05T19:29:47;3.70;1.00
5286;DHT22;2665;53.112;7.358;2023-03-05T19:32:14;3.70;1.00
5286;DHT22;2665;53.112;7.358;2023-03-05T19:34:42;3.70;1.00
5286;DHT22;2665;53.112;7.358;2023-03-05T19:37:10;3.70;1.00
5286;DHT22;2665;53.112;7.358;2023-03-05T19:39:36;3.70;1.00
5286;DHT22;2665;53.112;7.358;2023-03-05T19:42:02;3.70;1.00
5286;DHT22;2665;53.112;7.358;2023-03-05T19:44:28;3.60;1.00
5286;DHT22;2665;53.112;7.358;2023-03-05T19:46:54;3.60;1.00
5286;DHT22;2665;53.112;7.358;2023-03-05T19:49:20;3.60;1.00
5286;DHT22;2665;53.112;7.358;2023-03-05T19:51:46;3.50;1.00
5286;DHT22;2665;53.112;7.358;2023-03-05T19:54:13;3.50;1.00
5286;DHT22;2665;53.112;7.358;2023-03-05T19:56:40;3.50;1.00
5286;DHT22;2665;53.112;7.358;2023-03-05T19:59:07;3.60;1.00
5286;DHT22;2665;53.112;7.358;2023-03-05T20:01:33;3.50;1.00
5286;DHT22;2665;53.112;7.358;2023-03-05T20:04:00;3.40;25.20
5286;DHT22;2665;53.112;7.358;2023-03-05T20:06:27;3.40;96.60
5286;DHT22;2665;53.112;7.358;2023-03-05T20:08:54;3.40;99.90
5286;DHT22;2665;53.112;7.358;2023-03-05T20:11:20;3.40;99.90
5286;DHT22;2665;53.112;7.358;2023-03-05T20:13:46;3.40;99.90
5286;DHT22;2665;53.112;7.358;2023-03-05T20:16:17;3.40;99.90
5286;DHT22;2665;53.112;7.358;2023-03-05T20:18:44;3.40;99.90
5286;DHT22;2665;53.112;7.358;2023-03-05T20:21:13;3.40;1.00
5286;DHT22;2665;53.112;7.358;2023-03-05T20:23:43;3.40;99.90
5286;DHT22;2665;53.112;7.358;2023-03-05T20:26:08;3.40;1.00
5286;DHT22;2665;53.112;7.358;2023-03-05T20:28:34;3.40;1.00
5286;DHT22;2665;53.112;7.358;2023-03-05T20:31:00;3.40;99.90
5286;DHT22;2665;53.112;7.358;2023-03-05T20:33:27;3.40;99.90
5286;DHT22;2665;53.112;7.358;2023-03-05T20:35:53;3.40;99.90
5286;DHT22;2665;53.112;7.358;2023-03-05T20:38:22;3.40;99.90
5286;DHT22;2665;53.112;7.358;2023-03-05T20:41:08;3.40;99.90
5286;DHT22;2665;53.112;7.358;2023-03-05T20:43:36;3.40;1.00
5286;DHT22;2665;53.112;7.358;2023-03-05T20:46:03;3.40;1.00
5286;DHT22;2665;53.112;7.358;2023-03-05T20:48:32;3.40;1.00
5286;DHT22;2665;53.112;7.358;2023-03-05T20:51:09;3.40;1.00
5286;DHT22;2665;53.112;7.358;2023-03-05T20:53:35;3.40;99.90
5286;DHT22;2665;53.112;7.358;2023-03-05T20:56:01;3.50;99.90
5286;DHT22;2665;53.112;7.358;2023-03-05T20:58:26;3.50;99.90
5286;DHT22;2665;53.112;7.358;2023-03-05T21:00:52;3.40;99.90
5286;DHT22;2665;53.112;7.358;2023-03-05T21:03:18;3.50;99.90
5286;DHT22;2665;53.112;7.358;2023-03-05T21:05:44;3.40;99.90
5286;DHT22;2665;53.112;7.358;2023-03-05T21:08:11;3.40;99.90
5286;DHT22;2665;53.112;7.358;2023-03-05T21:10:37;3.50;99.90
5286;DHT22;2665;53.112;7.358;2023-03-05T21:13:02;3.50;99.90
5286;DHT22;2665;53.112;7.358;2023-03-05T21:15:28;3.50;99.90
5286;DHT22;2665;53.112;7.358;2023-03-05T21:17:54;3.50;99.90
5286;DHT22;2665;53.112;7.358;2023-03-05T21:20:26;3.50;99.90
5286;DHT22;2665;53.112;7.358;2023-03-05T21:22:53;3.50;99.90
5286;DHT22;2665;53.112;7.358;2023-03-05T21:25:30;3.50;99.90
5286;DHT22;2665;53.112;7.358;2023-03-05T21:28:04;3.50;99.90
5286;DHT22;2665;53.112;7.358;2023-03-05T21:30:37;3.40;99.90
5286;DHT22;2665;53.112;7.358;2023-03-05T21:33:06;3.40;99.90
5286;DHT22;2665;53.112;7.358;2023-03-05T21:35:34;3.40;99.90
5286;DHT22;2665;53.112;7.358;2023-03-05T21:38:00;3.40;99.90
5286;DHT22;2665;53.112;7.358;2023-03-05T21:40:27;3.40;99.90
5286;DHT22;2665;53.112;7.358;2023-03-05T21:42:53;3.50;99.90
5286;DHT22;2665;53.112;7.358;2023-03-05T21:45:22;3.50;99.90
5286;DHT22;2665;53.112;7.358;2023-03-05T21:47:48;3.50;99.90
5286;DHT22;2665;53.112;7.358;2023-03-05T21:50:15;3.50;99.90
5286;DHT22;2665;53.112;7.358;2023-03-05T21:52:41;3.50;99.90
5286;DHT22;2665;53.112;7.358;2023-03-05T21:55:14;3.50;99.90
5286;DHT22;2665;53.112;7.358;2023-03-05T21:57:40;3.50;99.90
5286;DHT22;2665;53.112;7.358;2023-03-05T22:00:06;3.50;99.90
5286;DHT22;2665;53.112;7.358;2023-03-05T22:02:35;3.50;99.90
5286;DHT22;2665;53.112;7.358;2023-03-05T22:05:02;3.50;99.90
5286;DHT22;2665;53.112;7.358;2023-03-05T22:07:27;3.50;99.90
5286;DHT22;2665;53.112;7.358;2023-03-05T22:09:54;3.50;99.90
5286;DHT22;2665;53.112;7.358;2023-03-05T22:18:13;3.50;99.90
5286;DHT22;2665;53.112;7.358;2023-03-05T22:20:39;3.50;99.90
5286;DHT22;2665;53.112;7.358;2023-03-05T22:23:05;3.40;99.90
5286;DHT22;2665;53.112;7.358;2023-03-05T22:25:31;3.40;99.90
5286;DHT22;2665;53.112;7.358;2023-03-05T22:27:57;3.40;99.90
5286;DHT22;2665;53.112;7.358;2023-03-05T22:30:22;3.40;99.90
5286;DHT22;2665;53.112;7.358;2023-03-05T22:32:48;3.50;99.90
5286;DHT22;2665;53.112;7.358;2023-03-05T22:35:14;3.50;99.90
5286;DHT22;2665;53.112;7.358;2023-03-05T22:37:41;3.50;99.90
5286;DHT22;2665;53.112;7.358;2023-03-05T22:40:09;3.50;99.90
5286;DHT22;2665;53.112;7.358;2023-03-05T22:42:37;3.50;99.90
5286;DHT22;2665;53.112;7.358;2023-03-05T22:45:03;3.50;99.90
5286;DHT22;2665;53.112;7.358;2023-03-05T22:47:29;3.50;99.90
5286;DHT22;2665;53.112;7.358;2023-03-05T22:49:56;3.50;99.90
5286;DHT22;2665;53.112;7.358;2023-03-05T22:52:22;3.50;99.90
5286;DHT22;2665;53.112;7.358;2023-03-05T22:54:47;3.50;99.90
5286;DHT22;2665;53.112;7.358;2023-03-05T22:57:13;3.60;99.90
5286;DHT22;2665;53.112;7.358;2023-03-05T22:59:39;3.50;99.90
5286;DHT22;2665;53.112;7.358;2023-03-05T23:02:04;3.50;99.90
5286;DHT22;2665;53.112;7.358;2023-03-05T23:04:42;3.50;99.90
5286;DHT22;2665;53.112;7.358;2023-03-05T23:07:25;3.50;99.90
5286;DHT22;2665;53.112;7.358;2023-03-05T23:10:00;3.50;99.90
5286;DHT22;2665;53.112;7.358;2023-03-05T23:12:28;3.50;99.90
5286;DHT22;2665;53.112;7.358;2023-03-05T23:14:54;3.40;99.90
5286;DHT22;2665;53.112;7.358;2023-03-05T23:17:20;3.40;99.90
5286;DHT22;2665;53.112;7.358;2023-03-05T23:19:45;3.40;99.90
5286;DHT22;2665;53.112;7.358;2023-03-05T23:22:12;3.40;99.90
5286;DHT22;2665;53.112;7.358;2023-03-05T23:24:38;3.40;99.90
5286;DHT22;2665;53.112;7.358;2023-03-05T23:27:05;3.30;99.90
5286;DHT22;2665;53.112;7.358;2023-03-05T23:30:13;3.30;99.90
5286;DHT22;2665;53.112;7.358;2023-03-05T23:32:39;3.30;99.90
5286;DHT22;2665;53.112;7.358;2023-03-05T23:35:05;3.30;99.90
5286;DHT22;2665;53.112;7.358;2023-03-05T23:37:30;3.30;99.90
5286;DHT22;2665;53.112;7.358;2023-03-05T23:39:56;3.20;1.00
5286;DHT22;2665;53.112;7.358;2023-03-05T23:42:22;3.20;1.00
5286;DHT22;2665;53.112;7.358;2023-03-05T23:44:47;3.20;1.00
5286;DHT22;2665;53.112;7.358;2023-03-05T23:47:13;3.20;1.00
5286;DHT22;2665;53.112;7.358;2023-03-05T23:49:38;3.20;1.00
5286;DHT22;2665;53.112;7.358;2023-03-05T23:52:04;3.20;1.00
5286;DHT22;2665;53.112;7.358;2023-03-05T23:54:30;3.20;1.00
5286;DHT22;2665;53.112;7.358;2023-03-05T23:56:55;3.20;1.00
5286;DHT22;2665;53.112;7.358;2023-03-05T23:59:21;3.20;1.00
